Time,TemperatureF,DewpointF,PressureIn,WindDirection,WindDirectionDegrees,WindSpeedMPH,WindSpeedGustMPH,Humidity,HourlyPrecipIn,Conditions,Clouds,dailyrainin,SoftwareType,DateUTC
2013-06-08 00:13:00,58.0,55.0,29.89,WSW,240,0.0,0.0,91,0.00,,,0.00,weatherlink.com 1.10,2013-06-08 05:13:00,
2013-06-08 00:28:00,57.7,55.0,29.88,WSW,240,0.0,0.0,92,0.00,,,0.00,weatherlink.com 1.10,2013-06-08 05:28:00,
2013-06-08 00:43:00,57.4,55.0,29.88,WSW,240,0.0,0.0,92,0.00,,,0.00,weatherlink.com 1.10,2013-06-08 05:43:00,
2013-06-08 00:58:00,57.1,55.0,29.88,WSW,240,0.0,0.0,92,0.00,,,0.00,weatherlink.com 1.10,2013-06-08 05:58:00,
2013-06-08 01:13:00,57.0,55.0,29.88,WSW,240,0.0,0.0,93,0.00,,,0.00,weatherlink.com 1.10,2013-06-08 06:13:00,
2013-06-08 01:28:00,56.7,55.0,29.88,WSW,240,0.0,0.0,93,0.00,,,0.00,weatherlink.com 1.10,2013-06-08 06:28:00,
2013-06-08 01:43:00,56.5,55.0,29.88,WSW,240,0.0,0.0,94,0.00,,,0.00,weatherlink.com 1.10,2013-06-08 06:43:00,
2013-06-08 01:58:00,56.4,55.0,29.88,WSW,240,0.0,0.0,94,0.00,,,0.00,weatherlink.com 1.10,2013-06-08 06:58:00,
2013-06-08 02:13:00,56.5,55.0,29.89,WSW,240,0.0,0.0,94,0.00,,,0.00,weatherlink.com 1.10,2013-06-08 07:13:00,
2013-06-08 02:28:00,56.3,55.0,29.88,WSW,240,0.0,0.0,95,0.00,,,0.00,weatherlink.com 1.10,2013-06-08 07:28:00,
2013-06-08 02:43:00,56.3,55.0,29.88,WSW,240,0.0,0.0,95,0.00,,,0.00,weatherlink.com 1.10,2013-06-08 07:43:00,
2013-06-08 02:59:00,56.1,55.0,29.88,WSW,240,0.0,0.0,95,0.00,,,0.00,weatherlink.com 1.10,2013-06-08 07:59:00,
2013-06-08 03:14:00,55.9,55.0,29.87,WSW,240,0.0,0.0,95,0.00,,,0.00,weatherlink.com 1.10,2013-06-08 08:14:00,
2013-06-08 03:29:00,56.0,55.0,29.88,WSW,240,0.0,0.0,95,0.00,,,0.00,weatherlink.com 1.10,2013-06-08 08:29:00,
2013-06-08 03:44:00,55.9,55.0,29.87,WSW,240,0.0,0.0,95,0.00,,,0.00,weatherlink.com 1.10,2013-06-08 08:44:00,
2013-06-08 03:59:00,55.5,54.0,29.87,WSW,240,0.0,0.0,95,0.00,,,0.00,weatherlink.com 1.10,2013-06-08 08:59:00,
2013-06-08 04:14:00,55.4,54.0,29.87,WSW,240,0.0,0.0,95,0.00,,,0.00,weatherlink.com 1.10,2013-06-08 09:14:00,
2013-06-08 04:29:00,55.3,54.0,29.86,WSW,240,0.0,0.0,96,0.00,,,0.00,weatherlink.com 1.10,2013-06-08 09:29:00,
2013-06-08 04:44:00,55.1,54.0,29.87,WSW,240,0.0,0.0,96,0.00,,,0.00,weatherlink.com 1.10,2013-06-08 09:44:00,
2013-06-08 04:59:00,55.0,54.0,29.87,WSW,240,0.0,0.0,96,0.00,,,0.00,weatherlink.com 1.10,2013-06-08 09:59:00,
2013-06-08 05:14:00,54.8,53.0,29.87,WSW,240,0.0,0.0,95,0.00,,,0.00,weatherlink.com 1.10,2013-06-08 10:14:00,
2013-06-08 05:29:00,54.5,53.0,29.87,WSW,240,0.0,0.0,96,0.00,,,0.00,weatherlink.com 1.10,2013-06-08 10:29:00,
2013-06-08 05:44:00,54.4,53.0,29.87,WSW,240,0.0,0.0,96,0.00,,,0.00,weatherlink.com 1.10,2013-06-08 10:44:00,
2013-06-08 05:59:00,54.1,53.0,29.87,WSW,240,0.0,0.0,96,0.00,,,0.00,weatherlink.com 1.10,2013-06-08 10:59:00,
2013-06-08 06:14:00,53.8,53.0,29.87,WSW,240,0.0,0.0,96,0.00,,,0.00,weatherlink.com 1.10,2013-06-08 11:14:00,
2013-06-08 06:29:00,53.9,53.0,29.88,WSW,240,0.0,0.0,96,0.00,,,0.00,weatherlink.com 1.10,2013-06-08 11:29:00,
2013-06-08 06:44:00,54.1,53.0,29.88,WSW,240,0.0,80.0,96,0.00,,,0.00,weatherlink.com 1.10,2013-06-08 11:44:00,
2013-06-08 06:59:00,54.9,54.0,29.88,WSW,240,0.0,0.0,96,0.00,,,0.00,weatherlink.com 1.10,2013-06-08 11:59:00,
2013-06-08 07:14:00,57.5,57.0,29.88,WSW,240,0.0,0.0,97,0.00,,,0.00,weatherlink.com 1.10,2013-06-08 12:14:00,
2013-06-08 07:29:00,61.3,59.0,29.88,WSW,240,0.0,0.0,92,0.00,,,0.00,weatherlink.com 1.10,2013-06-08 12:29:00,
2013-06-08 07:44:00,62.2,59.0,29.89,WSW,239,0.0,1.0,89,0.00,,,0.00,weatherlink.com 1.10,2013-06-08 12:44:00,
2013-06-08 07:59:00,64.3,59.0,29.89,West,262,0.0,1.0,83,0.00,,,0.00,weatherlink.com 1.10,2013-06-08 12:59:00,
2013-06-08 08:14:00,68.3,63.0,29.89,West,262,0.0,0.0,82,0.00,,,0.00,weatherlink.com 1.10,2013-06-08 13:14:00,
2013-06-08 08:29:00,71.1,61.0,29.88,West,261,0.0,1.0,71,0.00,,,0.00,weatherlink.com 1.10,2013-06-08 13:29:00,
2013-06-08 08:44:00,73.2,62.0,29.88,South,183,0.0,2.0,67,0.00,,,0.00,weatherlink.com 1.10,2013-06-08 13:44:00,
2013-06-08 08:59:00,74.5,61.0,29.89,SSW,193,4.0,5.0,63,0.00,,,0.00,weatherlink.com 1.10,2013-06-08 13:59:00,
2013-06-08 09:14:00,74.7,60.0,29.89,SSW,205,2.0,7.0,61,0.00,,,0.00,weatherlink.com 1.10,2013-06-08 14:14:00,
2013-06-08 09:29:00,74.9,61.0,29.89,SW,217,4.0,9.0,63,0.00,,,0.00,weatherlink.com 1.10,2013-06-08 14:29:00,
2013-06-08 09:44:00,76.4,62.0,29.88,ENE,68,3.0,8.0,62,0.00,,,0.00,weatherlink.com 1.10,2013-06-08 14:44:00,
2013-06-08 09:59:00,76.6,62.0,29.88,SSW,210,3.0,7.0,61,0.00,,,0.00,weatherlink.com 1.10,2013-06-08 14:59:00,
2013-06-08 10:14:00,76.7,62.0,29.88,SE,136,6.0,9.0,60,0.00,,,0.00,weatherlink.com 1.10,2013-06-08 15:14:00,
2013-06-08 10:29:00,77.9,62.0,29.88,SW,228,3.0,8.0,58,0.00,,,0.00,weatherlink.com 1.10,2013-06-08 15:29:00,
2013-06-08 10:44:00,78.3,62.0,29.88,South,170,1.0,9.0,58,0.00,,,0.00,weatherlink.com 1.10,2013-06-08 15:44:00,
2013-06-08 10:59:00,78.9,62.0,29.87,SSW,196,6.0,13.0,57,0.00,,,0.00,weatherlink.com 1.10,2013-06-08 15:59:00,
2013-06-08 11:14:00,80.1,64.0,29.87,ESE,108,5.0,11.0,58,0.00,,,0.00,weatherlink.com 1.10,2013-06-08 16:14:00,
2013-06-08 11:30:00,80.2,65.0,29.86,SW,219,13.0,13.0,60,0.00,,,0.00,weatherlink.com 1.10,2013-06-08 16:30:00,
2013-06-08 11:45:00,80.5,65.0,29.85,SSW,208,11.0,16.0,59,0.00,,,0.00,weatherlink.com 1.10,2013-06-08 16:45:00,
2013-06-08 12:00:00,80.8,66.0,29.85,SW,221,10.0,14.0,60,0.00,,,0.00,weatherlink.com 1.10,2013-06-08 17:00:00,
2013-06-08 12:15:00,82.0,66.0,29.86,SSW,199,10.0,14.0,59,0.00,,,0.00,weatherlink.com 1.10,2013-06-08 17:15:00,
2013-06-08 12:30:00,82.2,66.0,29.86,SSE,148,0.0,8.0,59,0.00,,,0.00,weatherlink.com 1.10,2013-06-08 17:30:00,
2013-06-08 12:45:00,82.4,67.0,29.85,SW,217,0.0,0.0,59,0.00,,,0.00,weatherlink.com 1.10,2013-06-08 17:45:00,
2013-06-08 13:00:00,82.8,66.0,29.85,WSW,247,0.0,0.0,58,0.00,,,0.00,weatherlink.com 1.10,2013-06-08 18:00:00,
2013-06-08 13:15:00,82.5,67.0,29.84,SW,217,0.0,0.0,59,0.00,,,0.00,weatherlink.com 1.10,2013-06-08 18:15:00,
2013-06-08 13:30:00,81.8,67.0,29.83,SW,226,0.0,0.0,61,0.00,,,0.00,weatherlink.com 1.10,2013-06-08 18:30:00,
2013-06-08 13:45:00,81.4,67.0,29.83,SSW,196,0.0,0.0,61,0.00,,,0.00,weatherlink.com 1.10,2013-06-08 18:45:00,
2013-06-08 14:00:00,81.4,67.0,29.83,SW,217,0.0,0.0,62,0.00,,,0.00,weatherlink.com 1.10,2013-06-08 19:00:00,
2013-06-08 14:15:00,82.6,67.0,29.82,SSW,205,0.0,0.0,60,0.00,,,0.00,weatherlink.com 1.10,2013-06-08 19:15:00,
2013-06-08 14:30:00,83.9,67.0,29.82,SSE,153,0.0,0.0,57,0.00,,,0.00,weatherlink.com 1.10,2013-06-08 19:30:00,
2013-06-08 14:45:00,83.5,67.0,29.81,ESE,122,0.0,0.0,57,0.00,,,0.00,weatherlink.com 1.10,2013-06-08 19:45:00,
2013-06-08 15:00:00,83.8,66.0,29.81,SSW,197,0.0,0.0,56,0.00,,,0.00,weatherlink.com 1.10,2013-06-08 20:00:00,
2013-06-08 15:15:00,83.8,68.0,29.80,SSW,203,0.0,0.0,59,0.00,,,0.00,weatherlink.com 1.10,2013-06-08 20:15:00,
2013-06-08 15:30:00,85.7,69.0,29.79,WSW,254,0.0,0.0,57,0.00,,,0.00,weatherlink.com 1.10,2013-06-08 20:30:00,
2013-06-08 15:45:00,84.2,68.0,29.80,SW,236,0.0,0.0,59,0.00,,,0.00,weatherlink.com 1.10,2013-06-08 20:45:00,
2013-06-08 16:00:00,84.0,68.0,29.79,SSW,211,0.0,0.0,59,0.00,,,0.00,weatherlink.com 1.10,2013-06-08 21:00:00,
2013-06-08 16:15:00,83.9,68.0,29.79,South,173,0.0,0.0,60,0.00,,,0.00,weatherlink.com 1.10,2013-06-08 21:15:00,
2013-06-08 16:30:00,83.8,68.0,29.79,ESE,121,0.0,0.0,60,0.00,,,0.00,weatherlink.com 1.10,2013-06-08 21:30:00,
2013-06-08 16:45:00,83.1,68.0,29.78,SSW,200,0.0,0.0,61,0.00,,,0.00,weatherlink.com 1.10,2013-06-08 21:45:00,
2013-06-08 17:00:00,84.5,69.0,29.77,SSW,195,0.0,0.0,59,0.00,,,0.00,weatherlink.com 1.10,2013-06-08 22:00:00,
2013-06-08 17:15:00,85.3,69.0,29.77,SSW,198,0.0,0.0,59,0.00,,,0.00,weatherlink.com 1.10,2013-06-08 22:15:00,
2013-06-08 17:30:00,84.4,67.0,29.76,South,181,0.0,0.0,57,0.00,,,0.00,weatherlink.com 1.10,2013-06-08 22:30:00,
2013-06-08 17:45:00,85.7,68.0,29.75,SSE,148,0.0,0.0,56,0.00,,,0.00,weatherlink.com 1.10,2013-06-08 22:45:00,
2013-06-08 18:00:00,84.6,68.0,29.75,SW,215,0.0,0.0,57,0.00,,,0.00,weatherlink.com 1.10,2013-06-08 23:00:00,
2013-06-08 18:15:00,84.3,67.0,29.74,South,177,0.0,0.0,57,0.00,,,0.00,weatherlink.com 1.10,2013-06-08 23:15:00,
2013-06-08 18:30:00,85.8,68.0,29.73,SSW,212,0.0,0.0,56,0.00,,,0.00,weatherlink.com 1.10,2013-06-08 23:30:00,
2013-06-08 18:45:00,84.6,68.0,29.74,SW,214,0.0,0.0,58,0.00,,,0.00,weatherlink.com 1.10,2013-06-08 23:45:00,
2013-06-08 19:00:00,84.5,68.0,29.74,South,180,0.0,0.0,58,0.00,,,0.00,weatherlink.com 1.10,2013-06-09 00:00:00,
2013-06-08 19:15:00,85.0,69.0,29.73,SSE,162,0.0,0.0,58,0.00,,,0.00,weatherlink.com 1.10,2013-06-09 00:15:00,
2013-06-08 19:30:00,84.1,68.0,29.73,SSW,207,0.0,0.0,59,0.00,,,0.00,weatherlink.com 1.10,2013-06-09 00:30:00,
2013-06-08 19:45:00,82.7,68.0,29.74,ESE,118,0.0,0.0,61,0.00,,,0.00,weatherlink.com 1.10,2013-06-09 00:45:00,
2013-06-08 20:00:00,81.7,68.0,29.74,SSE,153,0.0,0.0,63,0.00,,,0.00,weatherlink.com 1.10,2013-06-09 01:00:00,
2013-06-08 20:15:00,81.0,68.0,29.74,SSE,159,0.0,0.0,65,0.00,,,0.00,weatherlink.com 1.10,2013-06-09 01:15:00,
2013-06-08 20:30:00,80.3,68.0,29.74,SSW,204,0.0,0.0,66,0.00,,,0.00,weatherlink.com 1.10,2013-06-09 01:30:00,
2013-06-08 20:45:00,79.7,68.0,29.74,SW,218,0.0,0.0,67,0.00,,,0.00,weatherlink.com 1.10,2013-06-09 01:45:00,
2013-06-08 21:00:00,79.2,68.0,29.74,South,190,0.0,0.0,68,0.00,,,0.00,weatherlink.com 1.10,2013-06-09 02:00:00,
2013-06-08 21:15:00,78.9,68.0,29.75,SSE,158,0.0,0.0,70,0.00,,,0.00,weatherlink.com 1.10,2013-06-09 02:15:00,
2013-06-08 21:30:00,78.8,69.0,29.76,SW,217,0.0,8.0,71,0.00,,,0.00,weatherlink.com 1.10,2013-06-09 02:30:00,
2013-06-08 21:45:00,78.8,69.0,29.77,SSW,204,0.0,0.0,71,0.00,,,0.00,weatherlink.com 1.10,2013-06-09 02:45:00,
2013-06-08 22:00:00,78.1,69.0,29.77,SSW,198,0.0,0.0,73,0.00,,,0.00,weatherlink.com 1.10,2013-06-09 03:00:00,
2013-06-08 22:16:00,77.7,69.0,29.78,SSW,195,0.0,0.0,75,0.00,,,0.00,weatherlink.com 1.10,2013-06-09 03:16:00,
2013-06-08 22:31:00,77.5,69.0,29.79,SSE,165,0.0,0.0,76,0.00,,,0.00,weatherlink.com 1.10,2013-06-09 03:31:00,
2013-06-08 22:46:00,77.4,70.0,29.79,SSW,201,0.0,0.0,77,0.00,,,0.00,weatherlink.com 1.10,2013-06-09 03:46:00,
2013-06-08 23:01:00,76.9,70.0,29.79,SSW,204,0.0,0.0,78,0.00,,,0.00,weatherlink.com 1.10,2013-06-09 04:01:00,
2013-06-08 23:16:00,76.3,69.0,29.79,SW,226,0.0,0.0,78,0.00,,,0.00,weatherlink.com 1.10,2013-06-09 04:16:00,
2013-06-08 23:31:00,75.6,68.0,29.80,SW,219,0.0,0.0,77,0.00,,,0.00,weatherlink.com 1.10,2013-06-09 04:31:00,
2013-06-08 23:46:00,74.8,66.0,29.80,SSE,167,0.0,0.0,75,0.00,,,0.00,weatherlink.com 1.10,2013-06-09 04:46:00,